createdAt,value
2019-04-22T00:01:34.655Z,24.37
2019-04-22T00:04:09.928Z,24.83
2019-04-22T00:06:56.098Z,25.63
2019-04-22T00:09:24.192Z,26.07
2019-04-22T00:11:54.240Z,25.60
2019-04-22T00:14:13.394Z,26.33
2019-04-22T00:16:51.682Z,27.30
2019-04-22T00:19:22.693Z,62.83
2019-04-22T00:21:47.626Z,57.30
2019-04-22T00:24:17.017Z,32.67
2019-04-22T00:26:44.014Z,29.20
2019-04-22T00:29:39.466Z,27.77
2019-04-22T00:31:40.496Z,29.10
2019-04-22T00:34:14.244Z,27.20
2019-04-22T00:36:46.567Z,26.20
2019-04-22T00:39:17.025Z,27.27
2019-04-22T00:41:43.996Z,27.57
2019-04-22T00:44:15.328Z,26.03
2019-04-22T00:46:38.014Z,27.77
2019-04-22T00:49:52.726Z,27.20
2019-04-22T00:51:36.445Z,29.10
2019-04-22T00:54:03.294Z,27.50
2019-04-22T00:56:29.441Z,27.67
2019-04-22T00:58:59.027Z,29.53
2019-04-22T01:01:46.721Z,27.07
2019-04-22T01:04:07.564Z,26.13
2019-04-22T01:06:25.727Z,26.47
2019-04-22T01:12:07.575Z,87.37
2019-04-22T01:13:52.159Z,56.63
2019-04-22T01:16:23.025Z,31.37
2019-04-22T01:18:48.498Z,27.23
2019-04-22T01:21:25.579Z,27.50
2019-04-22T01:23:40.707Z,26.27
2019-04-22T01:26:15.462Z,27.67
2019-04-22T01:28:39.975Z,27.87
2019-04-22T01:31:02.790Z,26.20
2019-04-22T01:33:33.199Z,26.47
2019-04-22T01:36:15.567Z,27.00
2019-04-22T01:38:49.285Z,27.33
2019-04-22T01:41:20.398Z,85.90
2019-04-22T01:43:54.369Z,73.83
2019-04-22T01:46:16.930Z,31.83
2019-04-22T01:48:39.307Z,27.83
2019-04-22T01:51:10.089Z,27.17
2019-04-22T01:53:42.374Z,27.20
2019-04-22T01:56:06.023Z,26.93
2019-04-22T01:58:30.260Z,26.03
2019-04-22T02:01:10.480Z,28.00
2019-04-22T02:03:35.990Z,28.03
2019-04-22T02:06:09.024Z,29.27
2019-04-22T02:08:37.870Z,28.87
2019-04-22T02:11:02.360Z,29.53
2019-04-22T02:13:32.147Z,30.40
2019-04-22T02:15:58.277Z,28.63
2019-04-22T02:20:50.382Z,26.67
2019-04-22T02:26:31.330Z,28.63
2019-04-22T02:28:36.973Z,29.33
2019-04-22T02:31:20.812Z,28.70
2019-04-22T02:38:51.900Z,28.47
2019-04-22T02:41:16.880Z,28.97
2019-04-22T02:46:13.239Z,30.83
2019-04-22T02:48:53.267Z,28.77
2019-04-22T02:53:58.583Z,28.23
2019-04-22T02:56:05.584Z,29.30
2019-04-22T02:58:26.565Z,29.03
2019-04-22T03:00:58.881Z,30.57
2019-04-22T03:03:31.145Z,30.77
2019-04-22T03:05:59.253Z,29.27
2019-04-22T03:10:56.507Z,29.30
2019-04-22T03:13:25.272Z,30.30
2019-04-22T03:15:55.237Z,29.83
2019-04-22T03:18:19.563Z,30.70
2019-04-22T03:20:42.735Z,31.93
2019-04-22T03:23:25.424Z,33.30
2019-04-22T03:28:05.833Z,32.47
2019-04-22T03:33:20.075Z,33.67
2019-04-22T03:36:05.825Z,34.00
2019-04-22T03:38:08.547Z,34.40
2019-04-22T03:48:09.321Z,33.50
2019-04-22T03:50:46.279Z,34.53
2019-04-22T03:53:11.462Z,35.70
2019-04-22T03:55:41.820Z,32.67
2019-04-22T03:57:56.957Z,34.33
2019-04-22T04:00:42.991Z,34.80
2019-04-22T04:05:47.894Z,32.73
2019-04-22T04:13:03.546Z,33.03
2019-04-22T04:20:34.353Z,34.00
2019-04-22T04:23:05.321Z,33.27
2019-04-22T04:25:42.723Z,33.00
2019-04-22T04:28:11.762Z,32.87
2019-04-22T04:35:23.488Z,31.90
2019-04-22T04:40:21.261Z,31.87
2019-04-22T04:50:07.016Z,30.63
2019-04-22T04:57:57.760Z,30.60
2019-04-22T05:02:40.770Z,31.23
2019-04-22T05:05:08.334Z,31.07
2019-04-22T05:07:36.079Z,31.77
2019-04-22T05:09:55.042Z,32.07
2019-04-22T05:12:38.981Z,31.50
2019-04-22T05:17:18.325Z,31.23
2019-04-22T05:19:50.261Z,30.73
2019-04-22T05:22:18.945Z,32.00
2019-04-22T05:24:45.191Z,31.67
2019-04-22T05:27:24.688Z,32.80
2019-04-22T05:29:54.236Z,30.03
2019-04-22T05:32:04.315Z,29.87
2019-04-22T05:34:33.496Z,30.13
2019-04-22T05:37:05.302Z,30.63
2019-04-22T05:39:29.774Z,27.60
2019-04-22T05:42:04.141Z,29.87
2019-04-22T05:44:32.571Z,28.63
2019-04-22T05:46:55.774Z,28.63
2019-04-22T05:49:23.912Z,27.77
2019-04-22T05:52:09.659Z,28.00
2019-04-22T05:54:25.257Z,27.83
2019-04-22T05:56:49.581Z,26.70
2019-04-22T05:59:20.886Z,25.57
2019-04-22T06:04:19.815Z,24.17
2019-04-22T06:06:44.958Z,23.57
2019-04-22T06:09:10.720Z,23.00
2019-04-22T06:11:34.015Z,22.20
2019-04-22T06:14:07.826Z,20.73
2019-04-22T06:16:44.011Z,20.60
2019-04-22T06:19:16.810Z,21.20
2019-04-22T06:29:13.319Z,18.40
2019-04-22T06:31:52.671Z,18.80
2019-04-22T06:36:37.761Z,17.50
2019-04-22T06:38:59.076Z,18.20
2019-04-22T06:41:37.000Z,16.60
2019-04-22T06:43:57.871Z,16.93
2019-04-22T06:46:31.106Z,17.40
2019-04-22T06:48:52.824Z,21.43
2019-04-22T06:51:24.423Z,20.93
2019-04-22T06:53:47.349Z,17.27
2019-04-22T06:56:15.887Z,16.27
2019-04-22T06:58:50.642Z,15.87
2019-04-22T07:03:52.310Z,14.37
2019-04-22T07:06:17.556Z,15.20
2019-04-22T07:09:06.449Z,14.50
2019-04-22T07:11:14.203Z,14.43
2019-04-22T07:14:00.222Z,14.17
2019-04-22T07:16:05.237Z,14.10
2019-04-22T07:18:48.687Z,13.03
2019-04-22T07:21:01.417Z,15.77
2019-04-22T07:23:42.783Z,13.50
2019-04-22T07:25:58.651Z,14.03
2019-04-22T07:28:23.058Z,13.27
2019-04-22T07:30:57.657Z,12.67
2019-04-22T07:36:14.677Z,13.20
2019-04-22T07:38:26.387Z,13.40
2019-04-22T07:40:50.562Z,12.70
2019-04-22T07:43:27.966Z,12.23
2019-04-22T07:45:48.940Z,13.83
2019-04-22T07:48:26.441Z,19.97
2019-04-22T07:53:14.383Z,12.30
2019-04-22T07:55:42.816Z,12.33
2019-04-22T07:58:11.909Z,12.23
2019-04-22T08:00:38.683Z,12.73
2019-04-22T08:03:12.152Z,11.33
2019-04-22T08:05:45.839Z,12.03
2019-04-22T08:08:14.579Z,11.80
2019-04-22T08:13:03.752Z,11.03
2019-04-22T08:15:39.847Z,12.17
2019-04-22T08:18:04.285Z,12.47
2019-04-22T08:20:39.197Z,10.03
2019-04-22T08:23:04.677Z,10.30
2019-04-22T08:25:36.734Z,10.00
2019-04-22T08:28:08.350Z,10.70
2019-04-22T08:30:35.469Z,15.97
2019-04-22T08:33:04.788Z,11.00
2019-04-22T08:35:50.246Z,8.43
2019-04-22T08:37:58.917Z,8.77
2019-04-22T08:40:37.526Z,9.00
2019-04-22T08:43:11.517Z,8.67
2019-04-22T08:45:33.656Z,8.37
2019-04-22T08:47:57.960Z,8.13
2019-04-22T08:50:33.930Z,9.10
2019-04-22T08:53:08.102Z,8.70
2019-04-22T08:58:16.547Z,8.87
2019-04-22T09:00:42.093Z,7.97
2019-04-22T09:03:01.597Z,7.03
2019-04-22T09:05:53.479Z,7.37
2019-04-22T09:08:05.977Z,7.27
2019-04-22T09:10:36.165Z,7.47
2019-04-22T09:13:00.857Z,7.17
2019-04-22T09:15:31.047Z,6.43
2019-04-22T09:18:02.090Z,8.30
2019-04-22T09:20:26.498Z,8.73
2019-04-22T09:25:24.032Z,7.60
2019-04-22T09:27:49.881Z,7.33
2019-04-22T09:30:30.594Z,6.60
2019-04-22T09:32:55.756Z,6.90
2019-04-22T09:35:21.368Z,6.47
2019-04-22T09:38:08.962Z,6.40
2019-04-22T09:40:15.853Z,6.00
2019-04-22T09:42:45.516Z,6.90
2019-04-22T09:45:10.168Z,6.40
2019-04-22T09:50:08.609Z,5.97
2019-04-22T09:52:42.108Z,6.00
2019-04-22T09:57:35.230Z,5.43
2019-04-22T10:02:33.931Z,5.33
2019-04-22T10:10:03.287Z,5.30
2019-04-22T10:12:32.475Z,5.67
2019-04-22T10:14:55.491Z,5.07
2019-04-22T10:17:26.106Z,5.30
2019-04-22T10:19:53.518Z,5.10
2019-04-22T10:22:29.087Z,4.70
2019-04-22T10:24:55.276Z,5.10
2019-04-22T10:27:16.255Z,4.90
2019-04-22T10:30:00.103Z,5.57
2019-04-22T10:32:14.331Z,4.93
2019-04-22T10:34:28.949Z,4.67
2019-04-22T10:36:52.673Z,4.93
2019-04-22T10:39:16.251Z,5.00
2019-04-22T10:41:44.296Z,4.93
2019-04-22T10:44:11.084Z,4.83
2019-04-22T10:46:37.964Z,4.87
2019-04-22T10:49:04.532Z,5.10
2019-04-22T10:51:30.982Z,5.10
2019-04-22T10:53:57.777Z,4.70
2019-04-22T10:56:25.298Z,4.80
2019-04-22T10:58:52.972Z,5.00
2019-04-22T11:01:19.642Z,4.67
2019-04-22T11:03:46.072Z,5.00
2019-04-22T11:06:15.196Z,5.00
2019-04-22T11:08:50.474Z,4.87
2019-04-22T11:11:21.388Z,4.83
2019-04-22T11:13:39.914Z,4.73
2019-04-22T11:16:07.607Z,4.30
2019-04-22T11:18:35.672Z,5.03
2019-04-22T11:21:02.501Z,4.77
2019-04-22T11:23:29.376Z,4.53
2019-04-22T11:25:57.606Z,4.53
2019-04-22T11:28:25.541Z,4.83
2019-04-22T11:30:52.364Z,4.90
2019-04-22T11:33:20.463Z,4.80
2019-04-22T11:35:47.966Z,4.50
2019-04-22T11:38:37.716Z,4.60
2019-04-22T11:41:05.404Z,4.30
2019-04-22T11:43:32.663Z,4.40
2019-04-22T11:45:59.591Z,4.27
2019-04-22T11:48:27.036Z,5.03
2019-04-22T11:50:53.826Z,4.47
2019-04-22T11:53:20.712Z,4.30
2019-04-22T11:55:48.799Z,5.33
2019-04-22T11:58:16.939Z,9.80
2019-04-22T12:00:45.106Z,4.40
2019-04-22T12:03:12.603Z,4.80
2019-04-22T12:05:39.824Z,4.90
2019-04-22T12:08:07.071Z,4.70
2019-04-22T12:10:41.148Z,5.20
2019-04-22T12:13:03.946Z,5.90
2019-04-22T12:15:31.136Z,5.07
2019-04-22T12:17:59.205Z,5.03
2019-04-22T12:20:27.466Z,4.30
2019-04-22T12:22:54.247Z,5.10
2019-04-22T12:25:31.994Z,4.53
2019-04-22T12:27:50.958Z,4.97
2019-04-22T12:30:19.590Z,4.73
2019-04-22T12:32:46.477Z,4.47
2019-04-22T12:35:15.630Z,4.57
2019-04-22T12:37:49.568Z,4.30
2019-04-22T12:40:13.029Z,4.53
2019-04-22T12:42:39.715Z,4.60
2019-04-22T12:45:09.914Z,4.43
2019-04-22T12:47:37.829Z,4.33
2019-04-22T12:50:19.704Z,4.43
2019-04-22T12:52:47.816Z,4.57
2019-04-22T12:55:08.273Z,4.80
2019-04-22T12:57:34.955Z,4.13
2019-04-22T13:00:02.004Z,4.20
2019-04-22T13:02:29.312Z,4.03
2019-04-22T13:04:56.273Z,4.37
2019-04-22T13:07:24.119Z,4.37
2019-04-22T13:09:51.648Z,5.50
2019-04-22T13:12:19.351Z,7.90
2019-04-22T13:14:46.133Z,5.13
2019-04-22T13:17:15.246Z,4.57
2019-04-22T13:19:42.394Z,5.00
2019-04-22T13:22:09.318Z,4.60
2019-04-22T13:24:36.189Z,4.30
2019-04-22T13:27:03.297Z,4.60
2019-04-22T13:29:31.150Z,3.90
2019-04-22T13:31:58.574Z,4.03
2019-04-22T13:34:30.436Z,3.53
2019-04-22T13:36:54.929Z,6.40
2019-04-22T13:39:22.857Z,5.27
2019-04-22T13:41:54.560Z,4.23
2019-04-22T13:44:18.950Z,3.70
2019-04-22T13:47:04.128Z,3.80
2019-04-22T13:50:01.090Z,3.53
2019-04-22T13:52:29.230Z,3.70
2019-04-22T13:54:48.675Z,3.93
2019-04-22T13:57:01.344Z,3.50
2019-04-22T13:59:18.316Z,3.70
2019-04-22T14:01:48.378Z,3.77
2019-04-22T14:04:22.850Z,3.70
2019-04-22T14:06:49.483Z,3.70
2019-04-22T14:09:18.225Z,3.63
2019-04-22T14:11:50.520Z,3.77
2019-04-22T14:14:12.959Z,3.50
2019-04-22T14:16:40.828Z,3.30
2019-04-22T14:19:07.859Z,3.20
2019-04-22T14:21:34.851Z,3.07
2019-04-22T14:24:02.730Z,3.30
2019-04-22T14:26:46.826Z,3.20
2019-04-22T14:28:59.806Z,5.07
2019-04-22T14:31:26.757Z,4.57
2019-04-22T14:33:59.076Z,2.87
2019-04-22T14:36:23.322Z,2.90
2019-04-22T14:38:50.232Z,2.90
2019-04-22T14:41:35.757Z,3.43
2019-04-22T14:44:51.452Z,2.70
2019-04-22T14:46:39.113Z,2.83
2019-04-22T14:49:02.872Z,2.77
2019-04-22T14:51:27.717Z,3.10
2019-04-22T14:53:55.523Z,2.77
2019-04-22T14:56:08.465Z,2.60
2019-04-22T14:58:35.288Z,5.27
2019-04-22T15:01:03.297Z,4.60
2019-04-22T15:03:31.409Z,3.03
2019-04-22T15:05:58.303Z,2.60
2019-04-22T15:08:24.884Z,2.67
2019-04-22T15:10:51.797Z,2.67
2019-04-22T15:13:18.608Z,2.60
2019-04-22T15:15:49.795Z,2.83
2019-04-22T15:18:26.296Z,2.67
2019-04-22T15:21:00.753Z,2.90
2019-04-22T15:23:28.654Z,2.50
2019-04-22T15:25:56.803Z,2.90
2019-04-22T15:28:23.755Z,2.60
2019-04-22T15:30:51.186Z,2.40
2019-04-22T15:33:19.312Z,4.03
2019-04-22T15:35:47.240Z,4.67
2019-04-22T15:38:15.424Z,3.13
2019-04-22T15:40:42.793Z,7.80
2019-04-22T15:43:10.949Z,2.93
2019-04-22T15:45:39.083Z,2.50
2019-04-22T15:48:06.171Z,2.70
2019-04-22T15:50:33.071Z,2.50
2019-04-22T15:53:02.515Z,2.40
2019-04-22T15:55:29.160Z,2.47
2019-04-22T15:57:57.468Z,2.53
2019-04-22T16:00:36.791Z,2.80
2019-04-22T16:02:53.052Z,2.40
2019-04-22T16:05:20.375Z,2.30
2019-04-22T16:07:48.524Z,2.50
2019-04-22T16:10:15.887Z,2.50
2019-04-22T16:12:53.036Z,2.43
2019-04-22T16:15:13.202Z,2.47
2019-04-22T16:17:40.392Z,2.67
2019-04-22T16:20:08.981Z,2.80
2019-04-22T16:22:55.007Z,2.30
2019-04-22T16:25:42.951Z,2.50
2019-04-22T16:28:11.019Z,3.23
2019-04-22T16:30:39.407Z,4.13
2019-04-22T16:33:07.809Z,2.53
2019-04-22T16:35:35.103Z,2.30
2019-04-22T16:38:01.796Z,2.20
2019-04-22T16:40:28.454Z,2.37
2019-04-22T16:42:58.599Z,2.60
2019-04-22T16:45:25.283Z,2.40
2019-04-22T16:47:53.551Z,2.23
2019-04-22T16:50:20.945Z,2.23
2019-04-22T16:52:48.199Z,2.20
2019-04-22T16:55:15.241Z,2.40
2019-04-22T16:57:42.179Z,2.27
2019-04-22T17:00:11.175Z,2.63
2019-04-22T17:03:00.646Z,2.60
2019-04-22T17:05:45.755Z,2.33
2019-04-22T17:08:14.169Z,2.40
2019-04-22T17:10:41.921Z,2.40
2019-04-22T17:13:14.747Z,3.17
2019-04-22T17:15:37.600Z,2.90
2019-04-22T17:18:05.483Z,3.03
2019-04-22T17:20:32.384Z,2.97
2019-04-22T17:23:00.028Z,2.80
2019-04-22T17:25:26.744Z,3.10
2019-04-22T17:27:53.421Z,3.03
2019-04-22T17:30:22.147Z,3.00
2019-04-22T17:32:50.426Z,2.83
2019-04-22T17:35:17.826Z,2.77
2019-04-22T17:37:45.157Z,2.70
2019-04-22T17:40:30.404Z,2.90
2019-04-22T17:42:55.197Z,24.23
2019-04-22T17:45:49.230Z,5.37
2019-04-22T17:48:35.438Z,3.00
2019-04-22T17:51:16.600Z,3.17
2019-04-22T17:53:40.287Z,2.90
2019-04-22T17:56:10.164Z,2.97
2019-04-22T17:58:40.233Z,3.10
2019-04-22T18:01:02.722Z,2.90
2019-04-22T18:03:22.675Z,2.60
2019-04-22T18:05:44.963Z,2.93
2019-04-22T18:08:24.915Z,2.63
2019-04-22T18:10:56.063Z,2.80
2019-04-22T18:13:35.706Z,3.20
2019-04-22T18:15:58.386Z,3.63
2019-04-22T18:18:27.935Z,2.93
2019-04-22T18:20:45.761Z,3.00
2019-04-22T18:23:06.496Z,3.50
2019-04-22T18:25:48.500Z,2.87
2019-04-22T18:28:17.665Z,2.90
2019-04-22T18:30:39.730Z,3.20
2019-04-22T18:33:16.116Z,3.83
2019-04-22T18:35:42.075Z,2.60
2019-04-22T18:38:21.887Z,2.40
2019-04-22T18:40:38.417Z,2.27
2019-04-22T18:43:13.568Z,2.20
2019-04-22T18:45:47.467Z,2.47
2019-04-22T18:48:03.973Z,10.30
2019-04-22T18:50:52.563Z,2.90
2019-04-22T18:53:21.660Z,2.50
2019-04-22T18:56:09.772Z,2.53
2019-04-22T18:58:27.363Z,2.70
2019-04-22T19:00:44.020Z,2.83
2019-04-22T19:03:16.448Z,2.47
2019-04-22T19:06:02.651Z,2.70
2019-04-22T19:08:29.287Z,2.33
2019-04-22T19:11:06.942Z,2.60
2019-04-22T19:13:51.274Z,2.20
2019-04-22T19:16:01.490Z,2.40
2019-04-22T19:21:02.594Z,2.17
2019-04-22T19:23:28.747Z,2.43
2019-04-22T19:25:52.181Z,2.63
2019-04-22T19:28:29.500Z,2.63
2019-04-22T19:30:59.533Z,2.30
2019-04-22T19:33:23.880Z,2.90
2019-04-22T19:35:58.082Z,2.40
2019-04-22T19:38:12.202Z,2.80
2019-04-22T19:41:00.919Z,3.33
2019-04-22T19:43:16.042Z,2.60
2019-04-22T19:45:42.996Z,2.60
2019-04-22T19:48:21.900Z,2.17
2019-04-22T19:50:54.451Z,2.27
2019-04-22T19:53:19.496Z,2.40
2019-04-22T19:55:45.049Z,2.23
2019-04-22T19:58:13.146Z,2.23
2019-04-22T20:00:39.130Z,2.80
2019-04-22T20:03:25.338Z,1.90
2019-04-22T20:05:59.663Z,2.17
2019-04-22T20:08:26.388Z,2.10
2019-04-22T20:10:52.322Z,2.20
2019-04-22T20:13:33.456Z,1.87
2019-04-22T20:15:43.411Z,2.37
2019-04-22T20:18:44.032Z,2.20
2019-04-22T20:20:56.014Z,2.20
2019-04-22T20:23:14.400Z,3.20
2019-04-22T20:25:43.606Z,3.13
2019-04-22T20:28:19.391Z,2.23
2019-04-22T20:30:49.238Z,2.03
2019-04-22T20:33:08.746Z,2.40
2019-04-22T20:35:43.738Z,1.90
2019-04-22T20:38:08.799Z,2.10
2019-04-22T20:40:39.519Z,1.80
2019-04-22T20:43:17.635Z,1.90
2019-04-22T20:45:40.922Z,1.93
2019-04-22T20:47:58.100Z,2.00
2019-04-22T20:50:39.498Z,2.00
2019-04-22T20:53:07.337Z,2.37
2019-04-22T20:55:26.787Z,2.10
2019-04-22T20:58:08.140Z,2.00
2019-04-22T21:00:28.159Z,1.90
2019-04-22T21:02:51.392Z,1.73
2019-04-22T21:05:24.911Z,1.97
2019-04-22T21:08:06.310Z,2.00
2019-04-22T21:10:23.261Z,2.00
2019-04-22T21:12:50.923Z,2.00
2019-04-22T21:15:35.381Z,1.73
2019-04-22T21:17:55.307Z,2.13
2019-04-22T21:20:34.534Z,2.00
2019-04-22T21:22:58.833Z,1.80
2019-04-22T21:25:18.215Z,1.67
2019-04-22T21:28:03.070Z,1.90
2019-04-22T21:30:29.226Z,1.90
2019-04-22T21:32:53.554Z,2.00
2019-04-22T21:35:40.383Z,2.10
2019-04-22T21:38:04.387Z,2.20
2019-04-22T21:40:27.400Z,1.70
2019-04-22T21:43:02.160Z,1.90
2019-04-22T21:45:21.720Z,1.73
2019-04-22T21:48:07.101Z,2.03
2019-04-22T21:50:45.585Z,2.03
2019-04-22T21:53:01.819Z,2.13
2019-04-22T21:55:36.074Z,2.30
2019-04-22T21:58:06.870Z,2.10
2019-04-22T22:00:53.941Z,2.03
2019-04-22T22:03:13.877Z,2.10
2019-04-22T22:05:29.778Z,2.10
2019-04-22T22:07:56.108Z,2.07
2019-04-22T22:10:43.536Z,1.93
2019-04-22T22:13:05.200Z,2.50
2019-04-22T22:15:31.840Z,2.20
2019-04-22T22:17:55.079Z,2.20
2019-04-22T22:20:36.014Z,2.30
2019-04-22T22:23:20.328Z,2.50
2019-04-22T22:25:30.170Z,2.33
2019-04-22T22:27:58.706Z,2.30
2019-04-22T22:30:42.709Z,2.20
2019-04-22T22:33:04.112Z,2.43
2019-04-22T22:35:25.709Z,2.30
2019-04-22T22:37:50.424Z,2.30
2019-04-22T22:40:11.851Z,2.40
2019-04-22T22:42:38.762Z,2.50
2019-04-22T22:45:17.565Z,2.40
2019-04-22T22:47:53.409Z,2.10
2019-04-22T22:50:28.282Z,2.10
2019-04-22T22:53:17.195Z,2.30
2019-04-22T22:55:29.296Z,2.53
2019-04-22T22:57:59.864Z,2.50
2019-04-22T23:00:28.853Z,2.47
2019-04-22T23:03:12.570Z,2.50
2019-04-22T23:05:35.821Z,2.40
2019-04-22T23:08:18.725Z,3.00
2019-04-22T23:10:38.151Z,8.37
2019-04-22T23:13:05.350Z,3.23
2019-04-22T23:15:25.944Z,2.30
2019-04-22T23:17:37.829Z,2.17
2019-04-22T23:20:07.212Z,2.00
2019-04-22T23:22:50.937Z,2.50
2019-04-22T23:25:27.117Z,2.13
2019-04-22T23:27:52.575Z,2.20
2019-04-22T23:30:30.015Z,2.10
2019-04-22T23:33:12.276Z,2.50
2019-04-22T23:35:37.182Z,2.20
2019-04-22T23:38:08.105Z,2.13
2019-04-22T23:40:38.985Z,2.10
2019-04-22T23:43:15.788Z,1.97
2019-04-22T23:45:41.588Z,2.23
2019-04-22T23:48:06.902Z,2.50
2019-04-22T23:50:37.562Z,2.10
2019-04-22T23:53:11.387Z,2.20
2019-04-22T23:55:37.161Z,2.20
2019-04-22T23:58:09.640Z,2.10
